Naples, North Carolina
Current Conditions -  °F | °C
As of 6:46 AM on Tuesday 21 Oct 2014 (Local Time) from KAVL Reporting Station
Broken Clouds Broken Clouds  
Wind Chill: 42°   Ceiling: 7500
Heat Index: 42°   Visibility: 10mi
Dew Point: 41°   Wind: 0mph
Humidity: 96%   Direction: NA
Pressure: 29.99"   Gusts: NA
Location:  35.39°N, 82.5°W
Report Text: KAVL 211046Z 00000KT 10SM SCT001 BKN075 06/05 A2999 RMK AO2 T00560050
Loading
Personal Weather Stations






























Interactive Weather Map
Tropical Storm Tracking
New forecast layout! Learn more

10-Day Weather Forecast

Advertisements
Track Severe Weather on mobile